»·PEaware :: N734KU KLAX-KSNA

N734KU :: KLAX-KSNA

FLIGHT INFORMATION

Flight Status: Arrived
Operator: Privately registered:
United States
More flights under this callsign
Pilot: Chris W. (16363)
Aircraft: CESSNA 172 SKYHAWK
(C172)
More flights by this aircraft type
Origin: KLAX Los Angeles Intl
United States
Destination: KSNA John Wayne-Orange Co
United States
More flights between these airports :: More routes between these airports
Route: +SLI8 SLI
File this flight plan on PilotEdge
Remarks: I-6
Altitude:
(Current/Filed)
5,000ft
Speed:
(Current/Filed)
100kts
Departed: 23-Nov-18 10:54 PM
Arrived: 23-Nov-18 11:35 PM
Distance/Time
Traveled:
31nm/0:40
Distance/Time
To Go:
Arrived

Flight Plot

Page will automatically refresh every two minutes.

Flight plan parsing failed; only flown route is shown


Map Options




Map Legend


Flown Route
Filed Route
Departure Airport
Arrival Airport
Navaid (VOR, NDB)
Fix

Horizontal Profiles

Position Reports

Time Latitude Longitude Heading Altitude Ground
Speed
23-Nov-18 22:32 33.938645 -118.420251 83 112ft 0kts
23-Nov-18 22:33 33.938645 -118.420251 83 112ft 0kts
23-Nov-18 22:34 33.938645 -118.420251 83 112ft 0kts
23-Nov-18 22:35 33.938645 -118.420251 83 112ft 0kts
23-Nov-18 22:36 33.938645 -118.420251 83 112ft 0kts
23-Nov-18 22:37 33.938645 -118.420251 83 112ft 0kts
23-Nov-18 22:38 33.938645 -118.420251 83 112ft 0kts
23-Nov-18 22:39 33.938645 -118.420251 83 112ft 0kts
23-Nov-18 22:40 33.938645 -118.420251 83 112ft 0kts
23-Nov-18 22:41 33.938645 -118.420251 83 112ft 0kts
23-Nov-18 22:42 33.938645 -118.420251 83 112ft 0kts
23-Nov-18 22:43 33.937747 -118.419625 171 113ft 3kts
23-Nov-18 22:44 33.936896 -118.418392 86 115ft 15kts
23-Nov-18 22:45 33.937508 -118.412436 83 122ft 20kts
23-Nov-18 22:46 33.938358 -118.404085 83 117ft 28kts
23-Nov-18 22:47 33.938803 -118.398555 132 109ft 0kts
23-Nov-18 22:48 33.938803 -118.398555 132 109ft 0kts
23-Nov-18 22:49 33.938803 -118.398555 132 109ft 0kts
23-Nov-18 22:50 33.938803 -118.398555 132 109ft 0kts
23-Nov-18 22:51 33.938803 -118.398555 132 109ft 0kts
23-Nov-18 22:52 33.938803 -118.398555 132 109ft 0kts
23-Nov-18 22:53 33.938803 -118.398555 132 109ft 0kts
23-Nov-18 22:54 33.938803 -118.398555 132 109ft 0kts
23-Nov-18 22:55 33.938803 -118.398555 132 109ft 0kts
23-Nov-18 22:56 33.938803 -118.398555 132 109ft 0kts
23-Nov-18 22:57 33.936986 -118.407375 265 158ft 95kts
23-Nov-18 22:58 33.934031 -118.439036 266 1221ft 99kts
23-Nov-18 22:59 33.920259 -118.459491 190 2286ft 80kts
23-Nov-18 23:00 33.900814 -118.454916 142 3187ft 87kts
23-Nov-18 23:01 33.882478 -118.439967 141 4034ft 92kts
23-Nov-18 23:02 33.859805 -118.421546 142 4012ft 100kts
23-Nov-18 23:03 33.838228 -118.403632 139 3999ft 89kts
23-Nov-18 23:04 33.829004 -118.378178 99 3915ft 87kts
23-Nov-18 23:05 33.824505 -118.348334 102 3791ft 91kts
23-Nov-18 23:06 33.820188 -118.318811 96 4192ft 97kts
23-Nov-18 23:07 33.814521 -118.281357 97 4139ft 115kts
23-Nov-18 23:08 33.811404 -118.249744 101 4019ft 120kts
23-Nov-18 23:09 33.807220 -118.223208 102 3996ft 121kts
23-Nov-18 23:10 33.800376 -118.185393 104 3946ft 120kts
23-Nov-18 23:11 33.795291 -118.147849 104 4196ft 110kts
23-Nov-18 23:12 33.792177 -118.108211 96 4027ft 120kts
23-Nov-18 23:13 33.788237 -118.068814 98 4023ft 118kts
23-Nov-18 23:14 33.786773 -118.029491 68 3840ft 130kts
23-Nov-18 23:15 33.811076 -118.001032 66 3991ft 108kts
23-Nov-18 23:16 33.824890 -117.965091 74 4012ft 110kts
23-Nov-18 23:17 33.836383 -117.928387 75 4072ft 116kts
23-Nov-18 23:18 33.848558 -117.893069 68 4000ft 122kts
23-Nov-18 23:19 33.862658 -117.857743 68 3999ft 121kts
23-Nov-18 23:20 33.877300 -117.821203 68 3999ft 121kts
23-Nov-18 23:21 33.890316 -117.788676 68 3999ft 120kts
23-Nov-18 23:22 33.905040 -117.752220 66 3981ft 122kts
23-Nov-18 23:23 33.919786 -117.717599 68 4035ft 120kts
23-Nov-18 23:24 33.948326 -117.694554 30 3972ft 131kts
23-Nov-18 23:25 33.982913 -117.686860 323 3925ft 143kts
23-Nov-18 23:26 33.969712 -117.716249 175 3983ft 119kts
23-Nov-18 23:27 33.936495 -117.712837 175 3454ft 112kts
23-Nov-18 23:28 33.907555 -117.724992 202 3625ft 113kts
23-Nov-18 23:29 33.878051 -117.740746 185 3562ft 118kts
23-Nov-18 23:30 33.849475 -117.760262 201 3587ft 117kts
23-Nov-18 23:31 33.819838 -117.779465 205 3250ft 115kts
23-Nov-18 23:32 33.790147 -117.796470 204 2480ft 126kts
23-Nov-18 23:33 33.761688 -117.814295 190 1766ft 116kts
23-Nov-18 23:34 33.739909 -117.829941 200 1369ft 106kts
23-Nov-18 23:35 33.717238 -117.841965 200 888ft 93kts
23-Nov-18 23:36 33.695545 -117.855978 195 433ft 86kts
23-Nov-18 23:37 33.675656 -117.868901 200 60ft 51kts
23-Nov-18 23:38 33.674337 -117.870984 300 60ft 0kts
23-Nov-18 23:39 33.674337 -117.870984 301 60ft 0kts
23-Nov-18 23:40 33.674337 -117.870984 301 60ft 0kts

Navigation Log

Ident Type
Flight plan parsing failed, navigation log unavailable